createdAt,value
2018-03-21T00:02:27.474Z,82.20
2018-03-21T00:04:55.333Z,82.20
2018-03-21T00:07:23.571Z,83.40
2018-03-21T00:09:51.799Z,83.20
2018-03-21T00:12:19.933Z,86.40
2018-03-21T00:14:48.071Z,86.40
2018-03-21T00:17:15.730Z,86.40
2018-03-21T00:19:43.971Z,87.00
2018-03-21T00:22:12.073Z,80.70
2018-03-21T00:24:41.247Z,83.80
2018-03-21T00:27:09.649Z,85.90
2018-03-21T00:29:37.607Z,87.20
2018-03-21T00:32:05.629Z,84.70
2018-03-21T00:34:33.508Z,83.10
2018-03-21T00:37:01.370Z,81.50
2018-03-21T00:42:01.547Z,79.50
2018-03-21T00:44:29.407Z,79.50
2018-03-21T00:46:57.568Z,80.50
2018-03-21T00:49:25.568Z,81.70
2018-03-21T00:51:53.531Z,81.90
2018-03-21T00:54:21.736Z,81.80
2018-03-21T00:56:49.686Z,80.60
2018-03-21T00:59:17.527Z,79.50
2018-03-21T01:01:45.447Z,79.80
2018-03-21T01:04:15.069Z,80.10
2018-03-21T01:06:43.007Z,81.60
2018-03-21T01:09:11.295Z,83.00
2018-03-21T01:11:39.407Z,82.30
2018-03-21T01:14:07.326Z,79.60
2018-03-21T01:16:35.406Z,82.90
2018-03-21T01:19:03.426Z,82.90
2018-03-21T01:21:31.386Z,79.80
2018-03-21T01:24:00.266Z,78.90
2018-03-21T01:26:28.405Z,78.80
2018-03-21T01:28:56.466Z,81.10
2018-03-21T01:31:25.066Z,84.60
2018-03-21T01:33:53.245Z,84.60
2018-03-21T01:36:21.946Z,78.60
2018-03-21T01:38:50.788Z,81.50
2018-03-21T01:41:18.690Z,80.90
2018-03-21T01:43:46.608Z,82.50
2018-03-21T01:46:14.588Z,80.80
2018-03-21T01:48:42.712Z,81.50
2018-03-21T01:51:10.687Z,80.40
2018-03-21T01:53:39.386Z,83.40
2018-03-21T01:56:07.526Z,83.40
2018-03-21T01:58:35.506Z,84.60
2018-03-21T02:01:04.272Z,84.30
2018-03-21T02:03:32.054Z,84.30
2018-03-21T02:06:00.013Z,84.20
2018-03-21T02:08:28.154Z,82.10
2018-03-21T02:10:56.716Z,82.70
2018-03-21T02:13:24.653Z,82.60
2018-03-21T02:15:52.871Z,80.60
2018-03-21T02:18:20.855Z,80.70
2018-03-21T02:20:48.831Z,78.40
2018-03-21T02:23:17.091Z,80.60
2018-03-21T02:25:44.972Z,82.80
2018-03-21T02:28:12.812Z,83.80
2018-03-21T02:30:40.641Z,83.70
2018-03-21T02:33:08.452Z,83.60
2018-03-21T02:35:36.395Z,84.00
2018-03-21T02:38:04.392Z,82.90
2018-03-21T02:40:32.291Z,82.60
2018-03-21T02:43:00.233Z,82.00
2018-03-21T02:45:28.411Z,81.30
2018-03-21T02:47:57.091Z,82.60
2018-03-21T02:50:25.011Z,82.60
2018-03-21T02:52:52.852Z,82.90
2018-03-21T02:55:20.753Z,81.90
2018-03-21T02:57:48.992Z,81.40
2018-03-21T03:00:24.646Z,79.00
2018-03-21T03:02:52.767Z,78.80
2018-03-21T03:05:20.688Z,79.40
2018-03-21T03:07:48.528Z,81.40
2018-03-21T03:10:17.308Z,81.80
2018-03-21T03:12:45.307Z,81.80
2018-03-21T03:15:13.130Z,79.80
2018-03-21T03:17:41.327Z,79.80
2018-03-21T03:20:09.155Z,80.90
2018-03-21T03:22:36.967Z,81.10
2018-03-21T03:25:05.727Z,81.80
2018-03-21T03:27:33.607Z,81.80
2018-03-21T03:30:01.434Z,81.90
2018-03-21T03:32:30.147Z,82.50
2018-03-21T03:34:59.067Z,82.60
2018-03-21T03:37:27.328Z,82.60
2018-03-21T03:39:55.287Z,81.20
2018-03-21T03:42:23.327Z,81.90
2018-03-21T03:44:51.170Z,82.20
2018-03-21T03:47:19.427Z,80.30
2018-03-21T03:49:47.247Z,80.70
2018-03-21T03:52:15.108Z,80.40
2018-03-21T03:54:43.290Z,79.00
2018-03-21T03:57:11.267Z,77.80
2018-03-21T03:59:39.849Z,79.10
2018-03-21T04:02:08.031Z,79.10
2018-03-21T04:04:35.853Z,79.70
2018-03-21T04:07:03.971Z,78.30
2018-03-21T04:09:31.911Z,78.50
2018-03-21T04:11:59.873Z,78.00
2018-03-21T04:14:28.493Z,80.00
2018-03-21T04:16:56.613Z,79.90
2018-03-21T04:19:25.494Z,79.00
2018-03-21T04:21:53.571Z,79.00
2018-03-21T04:24:21.414Z,78.50
2018-03-21T04:26:50.312Z,79.70
2018-03-21T04:29:18.251Z,79.60
2018-03-21T04:31:46.535Z,79.60
2018-03-21T04:34:15.411Z,79.90
2018-03-21T04:36:43.451Z,79.90
2018-03-21T04:44:16.011Z,79.00
2018-03-21T04:46:44.091Z,80.20
2018-03-21T04:49:12.031Z,78.40
2018-03-21T04:51:40.804Z,79.90
2018-03-21T04:54:09.631Z,79.10
2018-03-21T04:56:37.511Z,79.50
2018-03-21T04:59:05.813Z,79.10
2018-03-21T05:01:33.933Z,79.80
2018-03-21T05:04:02.052Z,78.80
2018-03-21T05:06:29.913Z,79.70
2018-03-21T05:08:57.871Z,79.40
2018-03-21T05:11:25.696Z,79.50
2018-03-21T05:13:53.611Z,80.00
2018-03-21T05:16:21.752Z,79.90
2018-03-21T05:18:49.671Z,79.80
2018-03-21T05:21:17.691Z,80.40
2018-03-21T05:23:45.611Z,80.30
2018-03-21T05:26:13.731Z,79.10
2018-03-21T05:28:41.511Z,80.90
2018-03-21T05:31:09.513Z,80.70
2018-03-21T05:33:37.571Z,79.30
2018-03-21T05:36:05.753Z,80.40
2018-03-21T05:38:33.611Z,77.10
2018-03-21T05:41:01.354Z,76.20
2018-03-21T05:43:28.851Z,75.50
2018-03-21T05:45:56.671Z,71.50
2018-03-21T05:48:24.572Z,68.00
2018-03-21T05:50:52.351Z,65.70
2018-03-21T05:53:20.927Z,68.80
2018-03-21T05:55:48.647Z,68.80
2018-03-21T05:58:15.966Z,69.70
2018-03-21T06:00:44.248Z,70.20
2018-03-21T06:03:11.687Z,68.80
2018-03-21T06:05:39.527Z,67.20
2018-03-21T06:08:07.328Z,66.60
2018-03-21T06:10:34.788Z,64.90
2018-03-21T06:13:03.650Z,68.30
2018-03-21T06:15:32.327Z,65.90
2018-03-21T06:17:59.967Z,65.80
2018-03-21T06:20:27.745Z,63.90
2018-03-21T06:22:55.725Z,64.60
2018-03-21T06:25:23.485Z,64.10
2018-03-21T06:27:51.585Z,68.20
2018-03-21T06:30:19.527Z,69.60
2018-03-21T06:32:46.985Z,63.20
2018-03-21T06:35:15.266Z,59.00
2018-03-21T06:37:45.088Z,56.10
2018-03-21T06:40:13.166Z,55.00
2018-03-21T06:42:41.186Z,55.00
2018-03-21T06:45:09.826Z,55.00
2018-03-21T06:47:37.568Z,55.10
2018-03-21T06:50:05.088Z,55.10
2018-03-21T06:52:33.568Z,57.90
2018-03-21T06:55:01.489Z,58.00
2018-03-21T06:57:30.210Z,59.50
2018-03-21T06:59:58.087Z,57.80
2018-03-21T07:02:25.554Z,57.20
2018-03-21T07:04:53.726Z,56.20
2018-03-21T07:07:21.425Z,55.90
2018-03-21T07:09:49.056Z,60.10
2018-03-21T07:12:17.906Z,61.60
2018-03-21T07:14:58.485Z,60.10
2018-03-21T07:17:25.885Z,59.60
2018-03-21T07:19:53.628Z,58.60
2018-03-21T07:22:21.513Z,54.50
2018-03-21T07:24:48.896Z,51.40
2018-03-21T07:27:16.867Z,53.60
2018-03-21T07:29:44.147Z,54.20
2018-03-21T07:32:11.377Z,50.40
2018-03-21T07:34:38.558Z,50.80
2018-03-21T07:37:06.347Z,51.80
2018-03-21T07:39:39.681Z,54.80
2018-03-21T07:42:07.032Z,49.20
2018-03-21T07:44:34.531Z,51.10
2018-03-21T07:47:02.570Z,54.40
2018-03-21T07:49:30.990Z,52.20
2018-03-21T07:51:58.814Z,53.10
2018-03-21T07:54:26.890Z,52.10
2018-03-21T07:56:55.030Z,51.00
2018-03-21T07:59:23.210Z,48.30
2018-03-21T08:01:51.086Z,47.80
2018-03-21T08:04:18.946Z,41.60
2018-03-21T08:06:46.886Z,39.60
2018-03-21T08:09:15.046Z,40.20
2018-03-21T08:11:42.747Z,40.30
2018-03-21T08:14:10.446Z,41.30
2018-03-21T08:16:38.026Z,41.70
2018-03-21T08:19:05.428Z,40.90
2018-03-21T08:21:32.907Z,39.30
2018-03-21T08:24:00.447Z,37.60
2018-03-21T08:26:27.929Z,40.50
2018-03-21T08:28:55.868Z,44.30
2018-03-21T08:31:23.770Z,47.10
2018-03-21T08:33:51.483Z,45.80
2018-03-21T08:36:20.416Z,44.40
2018-03-21T08:38:48.028Z,44.40
2018-03-21T08:41:15.516Z,43.30
2018-03-21T08:43:43.274Z,45.90
2018-03-21T08:46:10.867Z,44.80
2018-03-21T08:48:38.366Z,45.20
2018-03-21T08:51:05.787Z,46.90
2018-03-21T08:53:33.674Z,45.40
2018-03-21T08:56:01.255Z,47.10
2018-03-21T08:58:29.727Z,47.10
2018-03-21T09:00:57.227Z,47.10
2018-03-21T09:03:24.928Z,47.90
2018-03-21T09:05:53.386Z,48.00
2018-03-21T09:08:20.887Z,48.00
2018-03-21T09:10:48.388Z,46.50
2018-03-21T09:13:16.267Z,46.00
2018-03-21T09:15:44.327Z,47.70
2018-03-21T09:18:13.118Z,49.10
2018-03-21T09:20:41.147Z,49.10
2018-03-21T09:23:08.576Z,49.40
2018-03-21T09:25:35.975Z,47.60
2018-03-21T09:28:04.949Z,48.10
2018-03-21T09:30:32.368Z,45.90
2018-03-21T09:33:00.126Z,45.20
2018-03-21T09:35:27.489Z,47.70
2018-03-21T09:37:55.347Z,44.60
2018-03-21T09:40:23.030Z,45.40
2018-03-21T09:42:50.836Z,42.90
2018-03-21T09:45:18.367Z,45.80
2018-03-21T09:47:46.087Z,45.10
2018-03-21T09:50:13.453Z,46.10
2018-03-21T09:52:41.209Z,45.40
2018-03-21T09:55:09.006Z,47.40
2018-03-21T09:57:36.308Z,46.60
2018-03-21T10:00:03.655Z,46.10
2018-03-21T10:02:31.111Z,48.30
2018-03-21T10:04:58.847Z,46.40
2018-03-21T10:07:26.894Z,46.10
2018-03-21T10:09:54.686Z,46.90
2018-03-21T10:12:22.427Z,45.20
2018-03-21T10:14:50.207Z,45.80
2018-03-21T10:17:17.989Z,43.90
2018-03-21T10:19:45.847Z,44.30
2018-03-21T10:22:14.554Z,47.60
2018-03-21T10:24:41.927Z,47.60
2018-03-21T10:27:10.049Z,43.30
2018-03-21T10:29:37.487Z,41.90
2018-03-21T10:32:04.948Z,43.50
2018-03-21T10:34:32.625Z,45.10
2018-03-21T10:39:32.486Z,45.60
2018-03-21T10:42:00.509Z,46.00
2018-03-21T10:44:28.294Z,44.40
2018-03-21T10:46:56.189Z,44.00
2018-03-21T10:49:24.306Z,45.10
2018-03-21T10:51:51.915Z,44.50
2018-03-21T10:54:19.286Z,46.70
2018-03-21T10:56:47.915Z,45.40
2018-03-21T10:59:15.487Z,45.40
2018-03-21T11:01:43.266Z,43.70
2018-03-21T11:04:11.494Z,42.20
2018-03-21T11:06:40.553Z,42.10
2018-03-21T11:09:08.707Z,43.70
2018-03-21T11:11:36.357Z,42.90
2018-03-21T11:14:04.126Z,43.90
2018-03-21T11:16:32.307Z,43.10
2018-03-21T11:18:59.928Z,43.50
2018-03-21T11:21:27.486Z,42.90
2018-03-21T11:23:55.186Z,45.50
2018-03-21T11:26:23.686Z,43.50
2018-03-21T11:28:51.226Z,43.40
2018-03-21T11:31:18.686Z,45.60
2018-03-21T11:33:46.196Z,41.70
2018-03-21T11:36:13.545Z,42.00
2018-03-21T11:38:41.295Z,42.60
2018-03-21T11:41:08.869Z,44.00
2018-03-21T11:43:36.367Z,42.90
2018-03-21T11:46:03.806Z,42.80
2018-03-21T11:48:31.507Z,42.10
2018-03-21T11:50:58.886Z,43.00
2018-03-21T11:53:26.268Z,42.30
2018-03-21T11:55:53.886Z,42.90
2018-03-21T11:58:21.407Z,41.80
2018-03-21T12:00:48.974Z,42.20
2018-03-21T12:03:16.486Z,40.20
2018-03-21T12:05:44.188Z,41.40
2018-03-21T12:08:11.807Z,39.80
2018-03-21T12:10:39.687Z,40.80
2018-03-21T12:13:07.386Z,41.10
2018-03-21T12:15:34.767Z,43.30
2018-03-21T12:18:02.467Z,42.20
2018-03-21T12:20:29.770Z,42.10
2018-03-21T12:22:57.246Z,42.30
2018-03-21T12:25:24.926Z,42.40
2018-03-21T12:27:52.586Z,44.00
2018-03-21T12:30:21.386Z,42.70
2018-03-21T12:32:49.013Z,42.60
2018-03-21T12:35:16.447Z,43.30
2018-03-21T12:37:43.786Z,42.00
2018-03-21T12:40:11.126Z,40.90
2018-03-21T12:42:38.546Z,44.00
2018-03-21T12:45:06.068Z,44.30
2018-03-21T12:47:33.486Z,42.40
2018-03-21T12:50:00.954Z,41.00
2018-03-21T12:52:28.726Z,41.40
2018-03-21T12:54:56.286Z,42.00
2018-03-21T12:57:23.806Z,42.50
2018-03-21T12:59:51.194Z,44.10
2018-03-21T13:02:18.746Z,43.90
2018-03-21T13:04:46.645Z,43.50
2018-03-21T13:07:14.067Z,42.40
2018-03-21T13:09:41.645Z,42.70
2018-03-21T13:12:09.245Z,43.70
2018-03-21T13:14:36.625Z,43.70
2018-03-21T13:17:04.611Z,41.60
2018-03-21T13:19:32.147Z,42.30
2018-03-21T13:21:59.565Z,43.70
2018-03-21T13:24:26.967Z,42.80
2018-03-21T13:26:54.373Z,41.70
2018-03-21T13:29:21.733Z,42.00
2018-03-21T13:31:49.465Z,40.70
2018-03-21T13:34:17.065Z,41.40
2018-03-21T13:36:44.667Z,41.00
2018-03-21T13:39:12.929Z,41.70
2018-03-21T13:41:40.690Z,41.90
2018-03-21T13:44:08.367Z,43.30
2018-03-21T13:46:36.086Z,43.50
2018-03-21T13:49:03.712Z,43.80
2018-03-21T13:51:31.331Z,41.90
2018-03-21T13:53:59.190Z,42.20
2018-03-21T13:56:27.029Z,41.30
2018-03-21T13:58:54.528Z,40.00
2018-03-21T14:01:21.871Z,41.30
2018-03-21T14:03:49.370Z,42.50
2018-03-21T14:06:17.230Z,40.80
2018-03-21T14:08:44.811Z,39.70
2018-03-21T14:11:13.590Z,38.70
2018-03-21T14:13:41.053Z,38.70
2018-03-21T14:16:08.830Z,39.40
2018-03-21T14:18:36.250Z,39.60
2018-03-21T14:21:03.871Z,40.30
2018-03-21T14:23:31.310Z,40.00
2018-03-21T14:25:59.199Z,41.90
2018-03-21T14:28:26.530Z,40.90
2018-03-21T14:30:53.950Z,40.60
2018-03-21T14:33:21.590Z,40.00
2018-03-21T14:35:49.190Z,40.40
2018-03-21T14:38:16.575Z,40.40
2018-03-21T14:40:44.112Z,39.90
2018-03-21T14:43:11.652Z,40.10
2018-03-21T14:45:40.728Z,39.90
2018-03-21T14:48:08.286Z,39.30
2018-03-21T14:50:35.748Z,39.60
2018-03-21T14:53:03.130Z,39.20
2018-03-21T14:55:30.526Z,39.30
2018-03-21T14:57:57.947Z,38.20
2018-03-21T15:00:25.760Z,37.40
2018-03-21T15:02:53.930Z,37.70
2018-03-21T15:05:21.266Z,37.70
2018-03-21T15:07:48.706Z,38.60
2018-03-21T15:10:16.287Z,40.20
2018-03-21T15:12:43.829Z,38.50
2018-03-21T15:15:11.190Z,39.00
2018-03-21T15:17:38.768Z,38.50
2018-03-21T15:20:07.129Z,39.30
2018-03-21T15:22:34.811Z,39.80
2018-03-21T15:25:02.159Z,40.40
2018-03-21T15:27:29.567Z,39.80
2018-03-21T15:29:57.167Z,39.00
2018-03-21T15:32:24.606Z,39.70
2018-03-21T15:34:52.010Z,40.40
2018-03-21T15:37:20.287Z,40.50
2018-03-21T15:39:47.726Z,40.50
2018-03-21T15:42:15.610Z,41.30
2018-03-21T15:44:43.028Z,41.80
2018-03-21T15:47:10.686Z,41.50
2018-03-21T15:49:38.427Z,41.90
2018-03-21T15:52:06.267Z,41.50
2018-03-21T15:54:33.688Z,41.70
2018-03-21T15:57:01.392Z,41.70
2018-03-21T15:59:28.971Z,42.40
2018-03-21T16:01:56.389Z,41.10
2018-03-21T16:04:23.768Z,42.00
2018-03-21T16:06:51.108Z,42.20
2018-03-21T16:09:18.494Z,42.40
2018-03-21T16:11:45.888Z,42.70
2018-03-21T16:14:13.406Z,43.00
2018-03-21T16:16:40.926Z,46.10
2018-03-21T16:19:08.270Z,47.10
2018-03-21T16:21:35.646Z,46.50
2018-03-21T16:24:03.227Z,45.90
2018-03-21T16:26:30.689Z,45.60
2018-03-21T16:28:58.116Z,47.10
2018-03-21T16:31:25.626Z,47.50
2018-03-21T16:33:52.936Z,46.90
2018-03-21T16:36:20.406Z,46.60
2018-03-21T16:38:48.855Z,48.00
2018-03-21T16:41:16.126Z,48.00
2018-03-21T16:43:44.006Z,47.40
2018-03-21T16:46:11.667Z,47.90
2018-03-21T16:48:39.066Z,48.50
2018-03-21T16:51:06.786Z,48.60
2018-03-21T16:53:34.366Z,48.30
2018-03-21T16:56:02.187Z,49.00
2018-03-21T16:58:29.666Z,48.90
2018-03-21T17:00:57.185Z,49.50
2018-03-21T17:03:24.606Z,50.30
2018-03-21T17:05:52.967Z,49.90
2018-03-21T17:08:20.386Z,49.80
2018-03-21T17:10:47.826Z,50.70
2018-03-21T17:13:15.167Z,50.10
2018-03-21T17:15:42.585Z,51.20
2018-03-21T17:18:10.006Z,50.70
2018-03-21T17:20:37.670Z,52.00
2018-03-21T17:23:05.246Z,51.50
2018-03-21T17:25:33.526Z,52.20
2018-03-21T17:28:01.406Z,52.20
2018-03-21T17:30:29.409Z,52.20
2018-03-21T17:32:56.927Z,51.30
2018-03-21T17:35:24.406Z,51.80
2018-03-21T17:37:52.267Z,52.10
2018-03-21T17:40:20.128Z,52.00
2018-03-21T17:42:47.868Z,52.40
2018-03-21T17:45:15.325Z,52.40
2018-03-21T17:47:43.029Z,52.20
2018-03-21T17:50:10.585Z,52.20
2018-03-21T17:52:38.452Z,52.30
2018-03-21T17:55:08.426Z,51.40
2018-03-21T17:57:35.826Z,53.30
2018-03-21T18:00:03.286Z,51.40
2018-03-21T18:02:31.551Z,52.20
2018-03-21T18:04:59.446Z,52.20
2018-03-21T18:07:27.186Z,52.10
2018-03-21T18:09:54.776Z,52.60
2018-03-21T18:12:23.934Z,53.20
2018-03-21T18:14:51.326Z,52.90
2018-03-21T18:17:19.106Z,54.00
2018-03-21T18:19:46.527Z,54.90
2018-03-21T18:22:14.369Z,53.90
2018-03-21T18:24:42.388Z,54.10
2018-03-21T18:27:09.826Z,54.80
2018-03-21T18:29:37.108Z,53.80
2018-03-21T18:32:04.769Z,53.80
2018-03-21T18:34:32.251Z,53.90
2018-03-21T18:36:59.667Z,54.30
2018-03-21T18:39:27.046Z,55.20
2018-03-21T18:41:54.527Z,54.00
2018-03-21T18:44:22.985Z,53.90
2018-03-21T18:46:50.744Z,53.50
2018-03-21T18:49:18.127Z,53.50
2018-03-21T18:51:45.726Z,55.30
2018-03-21T18:54:14.045Z,52.70
2018-03-21T18:56:41.570Z,52.70
2018-03-21T18:59:09.310Z,52.20
2018-03-21T19:01:36.659Z,52.00
2018-03-21T19:04:04.472Z,52.20
2018-03-21T19:06:32.128Z,52.30
2018-03-21T19:08:59.490Z,52.50
2018-03-21T19:11:27.198Z,51.60
2018-03-21T19:13:54.751Z,52.40
2018-03-21T19:16:22.049Z,52.70
2018-03-21T19:18:49.886Z,52.70
2018-03-21T19:21:17.386Z,53.80
2018-03-21T19:23:45.868Z,52.10
2018-03-21T19:26:13.409Z,52.10
2018-03-21T19:28:42.249Z,52.40
2018-03-21T19:31:09.869Z,54.70
2018-03-21T19:33:37.252Z,53.00
2018-03-21T19:36:05.086Z,55.70
2018-03-21T19:38:32.487Z,53.70
2018-03-21T19:41:00.128Z,54.40
2018-03-21T19:43:29.048Z,55.80
2018-03-21T19:45:56.657Z,53.60
2018-03-21T19:48:24.848Z,53.00
2018-03-21T19:50:52.468Z,52.90
2018-03-21T19:53:20.635Z,53.00
2018-03-21T19:55:48.826Z,53.80
2018-03-21T19:58:16.587Z,53.80
2018-03-21T20:00:44.075Z,55.00
2018-03-21T20:03:11.527Z,54.20
2018-03-21T20:05:39.188Z,54.10
2018-03-21T20:08:06.507Z,54.10
2018-03-21T20:10:34.214Z,55.70
2018-03-21T20:13:02.368Z,55.20
2018-03-21T20:15:30.048Z,55.20
2018-03-21T20:17:57.693Z,55.70
2018-03-21T20:20:26.209Z,55.90
2018-03-21T20:22:53.703Z,55.80
2018-03-21T20:25:21.294Z,56.20
2018-03-21T20:27:48.767Z,56.50
2018-03-21T20:30:16.206Z,55.20
2018-03-21T20:32:43.769Z,56.20
2018-03-21T20:35:11.343Z,57.00
2018-03-21T20:37:38.862Z,56.20
2018-03-21T20:40:06.368Z,56.60
2018-03-21T20:42:34.186Z,56.00
2018-03-21T20:45:01.693Z,56.30
2018-03-21T20:47:29.132Z,57.00
2018-03-21T20:49:56.708Z,57.50
2018-03-21T20:52:24.287Z,56.30
2018-03-21T20:54:52.462Z,57.90
2018-03-21T20:57:20.653Z,57.10
2018-03-21T20:59:48.366Z,57.00
2018-03-21T21:02:15.810Z,57.90
2018-03-21T21:04:44.093Z,57.00
2018-03-21T21:07:12.730Z,57.80
2018-03-21T21:09:42.189Z,56.90
2018-03-21T21:12:09.636Z,56.80
2018-03-21T21:14:38.137Z,58.00
2018-03-21T21:17:06.309Z,58.00
2018-03-21T21:19:33.729Z,58.00
2018-03-21T21:22:01.092Z,59.30
2018-03-21T21:24:28.848Z,56.20
2018-03-21T21:26:56.288Z,56.40
2018-03-21T21:29:24.095Z,56.60
2018-03-21T21:31:52.375Z,57.70
2018-03-21T21:34:19.708Z,58.50
2018-03-21T21:36:47.129Z,57.90
2018-03-21T21:39:14.532Z,58.50
2018-03-21T21:41:42.009Z,58.20
2018-03-21T21:44:09.322Z,58.40
2018-03-21T21:46:37.732Z,56.80
2018-03-21T21:49:05.232Z,56.80
2018-03-21T21:51:32.770Z,55.10
2018-03-21T21:54:01.616Z,53.90
2018-03-21T21:56:29.328Z,53.80
2018-03-21T21:58:56.609Z,54.20
2018-03-21T22:01:23.981Z,54.40
2018-03-21T22:03:52.263Z,57.10
2018-03-21T22:06:19.595Z,57.00
2018-03-21T22:08:47.173Z,56.50
2018-03-21T22:11:14.729Z,55.10
2018-03-21T22:13:42.810Z,55.90
2018-03-21T22:16:10.488Z,55.90
2018-03-21T22:18:38.298Z,56.80
2018-03-21T22:21:05.594Z,56.50
2018-03-21T22:23:34.073Z,58.80
2018-03-21T22:26:01.611Z,58.80
2018-03-21T22:28:29.127Z,59.00
2018-03-21T22:30:56.767Z,57.50
2018-03-21T22:33:25.587Z,57.90
2018-03-21T22:35:52.927Z,58.10
2018-03-21T22:38:20.447Z,58.20
2018-03-21T22:40:47.847Z,58.20
2018-03-21T22:43:15.389Z,58.70
2018-03-21T22:45:43.513Z,58.10
2018-03-21T22:48:10.905Z,58.10
2018-03-21T22:50:38.685Z,57.50
2018-03-21T22:53:06.430Z,57.80
2018-03-21T22:55:35.609Z,57.10
2018-03-21T22:58:04.027Z,57.10
2018-03-21T23:00:31.248Z,57.10
2018-03-21T23:02:58.688Z,58.10
2018-03-21T23:05:26.068Z,60.20
2018-03-21T23:07:53.448Z,60.00
2018-03-21T23:10:20.869Z,59.50
2018-03-21T23:12:48.291Z,59.20
2018-03-21T23:15:15.648Z,59.70
2018-03-21T23:17:43.251Z,60.80
2018-03-21T23:20:10.688Z,61.20
2018-03-21T23:22:38.048Z,62.00
2018-03-21T23:25:06.288Z,64.10
2018-03-21T23:27:33.685Z,63.90
2018-03-21T23:30:01.146Z,62.30
2018-03-21T23:32:28.444Z,64.10
2018-03-21T23:34:56.788Z,62.70
2018-03-21T23:37:24.006Z,62.60
2018-03-21T23:39:51.706Z,62.10
2018-03-21T23:42:19.106Z,63.50
2018-03-21T23:44:46.387Z,64.80
2018-03-21T23:47:13.927Z,63.50
2018-03-21T23:49:41.273Z,63.50
2018-03-21T23:52:08.845Z,61.40
2018-03-21T23:54:36.286Z,62.60
2018-03-21T23:57:03.767Z,61.50
2018-03-21T23:59:31.166Z,58.90
